Time;durP1;ratioP1;P1;durP2;ratioP2;P2;SDS_P1;SDS_P2;PMS_P1;PMS_P2;Temp;Humidity;BMP_temperature;BMP_pressure;BME280_temperature;BME280_humidity;BME280_pressure;Samples;Min_cycle;Max_cycle;Signal;HPM_P1;HPM_P2
2023/08/05 00:03:44;;;;;;;3.90;3.50;;;13.90;99.90;;;;;;8283290;28;20027;-76
2023/08/05 00:07:44;;;;;;;6.50;3.15;;;13.80;99.90;;;;;;8272000;28;20042;-77
2023/08/05 00:11:45;;;;;;;5.75;3.45;;;13.70;99.90;;;;;;8214305;28;20483;-76
2023/08/05 00:15:45;;;;;;;5.75;3.00;;;13.90;99.90;;;;;;8285522;28;20031;-76
2023/08/05 00:19:46;;;;;;;6.53;2.50;;;14.20;99.90;;;;;;8215192;28;20578;-75
2023/08/05 00:23:46;;;;;;;6.30;2.80;;;14.30;99.90;;;;;;8302861;28;20023;-76
2023/08/05 00:27:47;;;;;;;3.20;2.75;;;14.40;99.90;;;;;;8279345;28;20058;-75
2023/08/05 00:31:48;;;;;;;4.28;2.85;;;14.50;99.90;;;;;;8286817;28;20032;-75
2023/08/05 00:35:48;;;;;;;3.72;2.78;;;14.40;99.90;;;;;;8218471;28;20063;-76
2023/08/05 00:39:49;;;;;;;4.53;2.60;;;14.50;99.90;;;;;;8280050;28;20031;-76
2023/08/05 00:43:49;;;;;;;4.35;2.55;;;14.50;99.90;;;;;;8278616;28;20031;-75
2023/08/05 00:47:50;;;;;;;3.17;2.78;;;14.50;99.90;;;;;;8308860;28;20023;-76
2023/08/05 00:51:51;;;;;;;4.22;2.60;;;14.20;99.90;;;;;;8274475;28;20043;-76
2023/08/05 00:55:53;;;;;;;5.15;2.75;;;14.40;99.90;;;;;;8268637;28;20118;-76
2023/08/05 00:59:53;;;;;;;5.18;3.10;;;14.30;99.90;;;;;;8214506;28;20436;-75
2023/08/05 01:03:54;;;;;;;3.17;2.65;;;14.40;99.90;;;;;;8228330;28;20045;-77
2023/08/05 01:07:55;;;;;;;7.78;2.80;;;14.10;99.90;;;;;;8289685;28;21852;-77
2023/08/05 01:11:56;;;;;;;4.45;3.25;;;13.90;99.90;;;;;;8203002;28;20030;-76
2023/08/05 01:15:56;;;;;;;4.93;3.13;;;13.90;99.90;;;;;;8283302;28;20110;-75
2023/08/05 01:19:58;;;;;;;8.38;3.17;;;14.20;99.90;;;;;;8266175;28;20030;-76
2023/08/05 01:24:14;;;;;;;6.63;3.40;;;14.20;99.90;;;;;;8291542;28;20501;-76
2023/08/05 01:28:15;;;;;;;3.85;2.97;;;14.20;99.90;;;;;;8215724;28;20035;-76
2023/08/05 01:32:17;;;;;;;4.25;3.15;;;14.50;99.90;;;;;;8217942;28;20027;-75
2023/08/05 01:36:21;;;;;;;6.10;3.30;;;14.70;99.90;;;;;;8295477;28;20032;-76
2023/08/05 01:40:27;;;;;;;3.80;3.40;;;14.70;99.90;;;;;;8298994;28;20023;-76
2023/08/05 01:44:28;;;;;;;5.15;3.28;;;14.60;99.90;;;;;;8294425;28;20114;-76
2023/08/05 01:48:28;;;;;;;6.30;3.33;;;14.40;99.90;;;;;;8269499;28;20526;-77
2023/08/05 01:52:29;;;;;;;4.80;3.58;;;14.30;99.90;;;;;;8280613;28;20034;-75
2023/08/05 01:56:30;;;;;;;4.60;3.65;;;14.40;99.90;;;;;;8281410;28;20182;-75
2023/08/05 02:00:30;;;;;;;5.63;3.58;;;14.40;99.90;;;;;;8280522;28;20019;-76
2023/08/05 02:04:31;;;;;;;5.32;4.15;;;14.60;99.90;;;;;;8219727;28;20035;-76
2023/08/05 02:08:31;;;;;;;6.90;4.13;;;14.50;99.90;;;;;;8209383;28;20027;-76
2023/08/05 02:12:32;;;;;;;5.28;4.05;;;14.40;99.90;;;;;;8275948;28;20446;-77
2023/08/05 02:16:33;;;;;;;9.05;4.30;;;14.70;99.90;;;;;;8217197;28;20114;-75
2023/08/05 02:20:34;;;;;;;8.23;4.63;;;14.80;99.90;;;;;;8275823;28;20027;-75
2023/08/05 02:24:35;;;;;;;10.60;5.35;;;14.80;99.90;;;;;;8267662;28;20096;-76
2023/08/05 02:28:36;;;;;;;7.95;5.43;;;14.80;99.90;;;;;;8275575;28;20050;-76
2023/08/05 02:32:36;;;;;;;8.45;6.00;;;14.60;99.90;;;;;;8280390;28;20027;-74
2023/08/05 02:36:37;;;;;;;9.70;6.25;;;14.60;99.90;;;;;;8260507;28;20046;-75
2023/08/05 02:40:37;;;;;;;10.48;6.38;;;14.70;99.90;;;;;;8251680;28;20105;-77
2023/08/05 02:44:38;;;;;;;11.45;6.53;;;14.60;99.90;;;;;;8207530;28;20414;-75
2023/08/05 02:48:38;;;;;;;12.25;7.03;;;14.60;99.90;;;;;;8299208;28;20035;-75
2023/08/05 02:52:39;;;;;;;10.43;7.47;;;14.50;99.90;;;;;;8275351;28;20051;-75
2023/08/05 02:56:39;;;;;;;11.82;7.80;;;14.60;99.90;;;;;;8206523;28;20043;-75
2023/08/05 03:00:40;;;;;;;13.65;7.25;;;14.50;99.90;;;;;;8308788;28;20023;-76
2023/08/05 03:04:41;;;;;;;13.15;7.65;;;14.50;99.90;;;;;;8289226;28;20031;-75
2023/08/05 03:08:41;;;;;;;12.23;7.75;;;14.80;99.90;;;;;;8200740;28;20034;-76
2023/08/05 03:12:42;;;;;;;14.50;9.55;;;14.70;99.90;;;;;;8268353;28;20046;-76
2023/08/05 03:16:42;;;;;;;16.20;9.38;;;14.70;99.90;;;;;;8275072;28;20054;-75
2023/08/05 03:20:43;;;;;;;16.80;9.15;;;14.50;99.90;;;;;;8274730;28;20078;-76
2023/08/05 03:24:44;;;;;;;16.08;9.32;;;14.50;99.90;;;;;;8202629;28;20057;-77
2023/08/05 03:28:44;;;;;;;18.25;10.30;;;14.30;99.90;;;;;;8214926;28;20076;-77
2023/08/05 03:32:47;;;;;;;17.25;10.65;;;14.30;99.90;;;;;;8267139;28;20027;-77
2023/08/05 03:36:48;;;;;;;18.17;11.55;;;14.30;99.90;;;;;;8288820;28;20031;-77
2023/08/05 03:40:48;;;;;;;20.98;12.02;;;14.40;99.90;;;;;;8267193;28;20114;-77
2023/08/05 03:44:49;;;;;;;19.63;12.05;;;14.30;99.90;;;;;;8215989;28;20045;-77
2023/08/05 03:48:49;;;;;;;19.90;11.57;;;14.40;99.90;;;;;;8282329;28;20425;-77
2023/08/05 03:52:50;;;;;;;23.10;11.90;;;14.50;99.90;;;;;;8215973;28;20402;-77
2023/08/05 03:56:51;;;;;;;25.98;12.50;;;14.50;99.90;;;;;;8274854;28;20133;-77
2023/08/05 04:00:51;;;;;;;20.52;12.45;;;14.50;99.90;;;;;;8274405;28;20027;-77
2023/08/05 04:04:52;;;;;;;24.40;12.25;;;14.40;99.90;;;;;;8206022;28;20111;-77
2023/08/05 04:08:54;;;;;;;25.02;12.48;;;14.30;99.90;;;;;;8213498;28;20523;-77
2023/08/05 04:12:54;;;;;;;21.30;12.30;;;14.30;99.90;;;;;;8240685;28;20072;-77
2023/08/05 04:16:55;;;;;;;20.90;12.02;;;14.20;99.90;;;;;;8213445;28;20035;-77
2023/08/05 04:20:57;;;;;;;21.17;12.73;;;14.00;99.90;;;;;;8270439;28;20016;-77
2023/08/05 04:24:57;;;;;;;19.67;11.48;;;14.10;99.90;;;;;;8208100;28;20031;-77
2023/08/05 04:28:58;;;;;;;23.50;12.90;;;14.20;99.90;;;;;;8269624;28;20023;-77
2023/08/05 04:32:58;;;;;;;21.75;12.55;;;14.20;99.90;;;;;;8272797;28;20061;-76
2023/08/05 04:37:20;;;;;;;19.00;11.55;;;14.30;99.90;;;;;;8220504;28;20027;-77
2023/08/05 04:41:21;;;;;;;22.40;12.48;;;14.30;99.90;;;;;;8292620;28;20028;-77
2023/08/05 04:45:22;;;;;;;25.50;13.27;;;14.30;99.90;;;;;;8220272;28;20045;-77
2023/08/05 04:49:22;;;;;;;20.83;12.75;;;14.30;99.90;;;;;;8279512;28;20035;-77
2023/08/05 04:53:22;;;;;;;23.05;13.05;;;14.40;99.90;;;;;;8288396;28;20023;-77
2023/08/05 04:57:23;;;;;;;19.42;12.00;;;14.40;99.90;;;;;;8303269;28;20035;-77
2023/08/05 05:01:23;;;;;;;23.23;13.43;;;14.40;99.90;;;;;;8284827;28;20544;-77
2023/08/05 05:05:25;;;;;;;18.75;12.18;;;14.30;99.90;;;;;;8285631;28;20058;-77
2023/08/05 05:09:26;;;;;;;20.52;12.40;;;14.30;99.90;;;;;;8287123;28;20035;-77
2023/08/05 05:13:26;;;;;;;20.58;12.70;;;14.40;99.90;;;;;;8281857;28;20038;-76
2023/08/05 05:17:32;;;;;;;20.58;11.68;;;14.30;99.90;;;;;;8281947;28;20035;-75
2023/08/05 05:21:33;;;;;;;20.52;12.73;;;14.40;99.90;;;;;;8232344;28;20529;-76
2023/08/05 05:25:33;;;;;;;22.35;14.05;;;14.40;99.90;;;;;;8212569;28;20041;-76
2023/08/05 05:29:34;;;;;;;22.75;13.15;;;14.30;99.90;;;;;;8291698;28;20402;-77
2023/08/05 05:33:36;;;;;;;23.90;14.05;;;14.50;99.90;;;;;;8290601;28;20041;-77
2023/08/05 05:37:36;;;;;;;22.58;13.73;;;14.30;99.90;;;;;;8285738;28;20038;-76
2023/08/05 05:41:37;;;;;;;22.67;13.88;;;14.40;99.90;;;;;;8292212;28;20026;-76
2023/08/05 05:45:38;;;;;;;20.85;13.68;;;14.60;99.90;;;;;;8260377;28;20476;-77
2023/08/05 05:49:38;;;;;;;24.52;14.63;;;14.60;99.90;;;;;;8275537;28;20035;-77
2023/08/05 05:53:39;;;;;;;21.48;13.70;;;14.80;99.90;;;;;;8276793;28;20144;-76
2023/08/05 05:57:39;;;;;;;20.27;12.27;;;15.10;99.90;;;;;;8222478;28;20035;-76
2023/08/05 06:01:40;;;;;;;20.67;12.63;;;15.00;99.90;;;;;;8285152;28;20064;-77
2023/08/05 06:05:40;;;;;;;17.70;11.82;;;15.10;99.90;;;;;;8281278;28;20038;-77
2023/08/05 06:09:41;;;;;;;20.42;13.63;;;15.10;99.90;;;;;;8212018;28;20023;-77
2023/08/05 06:13:41;;;;;;;22.85;13.80;;;15.10;99.90;;;;;;8266467;28;20521;-76
2023/08/05 06:17:42;;;;;;;17.77;12.25;;;15.00;99.90;;;;;;8279235;28;20134;-76
2023/08/05 06:21:42;;;;;;;20.63;13.02;;;14.90;99.90;;;;;;8206865;28;20118;-76
2023/08/05 06:25:44;;;;;;;20.60;12.60;;;15.10;99.90;;;;;;8278903;28;20031;-77
2023/08/05 06:29:45;;;;;;;18.48;13.02;;;15.30;99.90;;;;;;8216835;28;20026;-77
2023/08/05 06:33:46;;;;;;;18.58;12.35;;;15.30;99.90;;;;;;8274695;28;20117;-77
2023/08/05 06:37:46;;;;;;;17.95;11.95;;;15.40;99.90;;;;;;8276654;28;20034;-77
2023/08/05 06:41:47;;;;;;;19.75;12.60;;;15.40;99.90;;;;;;8218758;28;20043;-77
2023/08/05 06:45:47;;;;;;;17.48;12.02;;;15.50;99.90;;;;;;8219265;28;20092;-77
2023/08/05 06:49:49;;;;;;;18.33;12.32;;;15.60;99.90;;;;;;8286598;28;20034;-77
2023/08/05 06:53:49;;;;;;;18.58;11.95;;;15.90;99.90;;;;;;8290678;28;20035;-77
2023/08/05 06:57:50;;;;;;;18.42;11.50;;;16.10;99.90;;;;;;8286317;28;20037;-78
2023/08/05 07:01:51;;;;;;;16.27;11.25;;;16.00;99.90;;;;;;8279305;28;20054;-77
2023/08/05 07:05:55;;;;;;;17.17;11.93;;;16.00;99.90;;;;;;8218380;28;20170;-77
2023/08/05 07:10:01;;;;;;;16.27;11.73;;;15.90;99.90;;;;;;8221496;28;20027;-79
2023/08/05 07:14:01;;;;;;;18.13;12.50;;;15.90;99.90;;;;;;8276111;28;20030;-79
2023/08/05 07:18:03;;;;;;;17.85;12.30;;;16.10;99.90;;;;;;8212775;28;20042;-80
2023/08/05 07:22:04;;;;;;;17.52;12.75;;;16.20;99.90;;;;;;8280314;28;20483;-78
2023/08/05 07:26:04;;;;;;;15.25;10.32;;;16.50;99.90;;;;;;8283052;28;20027;-79
2023/08/05 07:30:06;;;;;;;15.88;11.30;;;16.60;99.90;;;;;;8286178;28;20103;-79
2023/08/05 07:34:08;;;;;;;15.93;10.98;;;16.80;99.90;;;;;;8215611;28;20495;-80
2023/08/05 07:38:11;;;;;;;15.23;11.60;;;16.90;99.90;;;;;;8276159;28;20480;-80
2023/08/05 07:42:11;;;;;;;14.57;10.95;;;16.90;99.90;;;;;;8288369;28;20027;-79
2023/08/05 07:46:13;;;;;;;16.00;11.30;;;16.90;99.90;;;;;;8285571;28;20061;-79
2023/08/05 07:50:21;;;;;;;16.00;11.48;;;16.80;99.90;;;;;;8286974;28;20042;-79
2023/08/05 07:54:23;;;;;;;15.25;11.35;;;17.00;99.90;;;;;;8286453;28;20039;-79
2023/08/05 07:58:25;;;;;;;17.80;10.95;;;17.40;99.90;;;;;;8287264;28;20034;-79
2023/08/05 08:02:25;;;;;;;17.83;10.73;;;18.10;99.90;;;;;;8302515;28;20469;-80
2023/08/05 08:06:26;;;;;;;12.20;9.13;;;18.30;99.90;;;;;;8219107;28;20050;-79
2023/08/05 08:10:26;;;;;;;13.10;9.43;;;18.30;99.90;;;;;;8291756;28;20034;-77
2023/08/05 08:14:27;;;;;;;12.15;9.60;;;18.30;99.90;;;;;;8302864;28;20045;-79
2023/08/05 08:18:27;;;;;;;10.35;8.70;;;19.10;99.90;;;;;;8285214;28;20058;-79
2023/08/05 08:22:28;;;;;;;11.18;7.93;;;19.70;99.90;;;;;;8281698;28;20110;-79
2023/08/05 08:26:28;;;;;;;11.95;8.75;;;19.20;99.90;;;;;;8288890;28;20028;-79
2023/08/05 08:30:29;;;;;;;10.18;8.07;;;18.60;99.90;;;;;;8218077;28;20030;-79
2023/08/05 08:34:29;;;;;;;11.52;8.02;;;18.60;99.90;;;;;;8278620;28;20027;-80
2023/08/05 08:38:30;;;;;;;11.75;8.68;;;18.50;99.90;;;;;;8290667;28;20034;-80
2023/08/05 08:42:31;;;;;;;12.27;9.55;;;18.50;99.90;;;;;;8220443;28;20038;-80
2023/08/05 08:46:32;;;;;;;9.55;7.40;;;18.60;99.90;;;;;;8289067;28;20035;-79
2023/08/05 08:50:33;;;;;;;8.82;7.32;;;19.10;99.90;;;;;;8279528;28;20656;-80
2023/08/05 08:54:34;;;;;;;11.52;8.13;;;18.90;99.90;;;;;;8292912;28;20084;-80
2023/08/05 08:58:35;;;;;;;11.63;7.60;;;18.80;99.90;;;;;;8279967;28;20022;-80
2023/08/05 09:02:37;;;;;;;10.90;7.13;;;19.10;99.90;;;;;;8291197;28;20034;-80
2023/08/05 09:06:40;;;;;;;10.10;7.50;;;19.20;99.90;;;;;;8268275;28;20027;-79
2023/08/05 09:10:44;;;;;;;11.30;7.82;;;19.20;99.90;;;;;;8285254;28;20059;-79
2023/08/05 09:14:51;;;;;;;7.35;6.10;;;18.90;99.90;;;;;;8303519;28;20038;-79
2023/08/05 09:18:52;;;;;;;7.15;5.88;;;18.90;99.90;;;;;;8214910;28;20035;-79
2023/08/05 09:22:57;;;;;;;7.45;5.75;;;18.90;99.90;;;;;;8268812;28;20027;-79
2023/08/05 09:27:01;;;;;;;9.10;5.80;;;18.80;99.90;;;;;;8222585;28;20027;-79
2023/08/05 09:31:12;;;;;;;6.15;5.13;;;19.30;99.90;;;;;;8223123;28;20479;-79
2023/08/05 09:35:14;;;;;;;5.20;4.47;;;19.50;99.90;;;;;;8288002;28;20095;-79
2023/08/05 09:39:16;;;;;;;8.35;5.15;;;19.80;99.90;;;;;;8279897;28;20015;-80
2023/08/05 09:43:18;;;;;;;6.22;4.28;;;20.30;99.90;;;;;;8283081;28;20026;-80
2023/08/05 09:47:25;;;;;;;7.15;5.07;;;20.70;99.90;;;;;;8278015;28;20106;-80
2023/08/05 09:51:27;;;;;;;6.10;4.80;;;20.40;99.90;;;;;;8276593;28;20104;-81
2023/08/05 09:55:28;;;;;;;4.65;4.25;;;21.20;99.90;;;;;;8298978;28;20058;-79
2023/08/05 09:59:29;;;;;;;5.57;4.13;;;21.70;99.90;;;;;;8279980;28;20031;-80
2023/08/05 10:03:32;;;;;;;6.03;3.47;;;22.80;99.90;;;;;;8207688;28;20042;-80
2023/08/05 10:07:33;;;;;;;4.93;3.50;;;23.50;99.90;;;;;;8266928;28;20497;-81
2023/08/05 10:11:37;;;;;;;4.65;4.03;;;22.50;99.90;;;;;;8279552;28;20023;-80
2023/08/05 10:15:40;;;;;;;5.90;4.70;;;20.80;99.90;;;;;;8208218;28;20031;-79
2023/08/05 10:19:45;;;;;;;7.25;4.53;;;19.60;99.90;;;;;;8268929;28;20115;-79
2023/08/05 10:24:00;;;;;;;5.63;4.90;;;18.70;99.90;;;;;;8241309;28;20015;-79
2023/08/05 10:28:01;;;;;;;6.07;4.43;;;18.10;99.90;;;;;;8279843;28;20478;-79
2023/08/05 10:32:14;;;;;;;8.40;5.30;;;17.90;99.90;;;;;;8281515;28;20030;-80
2023/08/05 10:36:17;;;;;;;6.53;5.30;;;18.10;99.90;;;;;;8280913;28;20034;-80
2023/08/05 10:40:47;;;;;;;7.47;5.82;;;17.90;99.90;;;;;;8279663;28;20037;-80
2023/08/05 10:44:49;;;;;;;8.77;5.57;;;18.00;99.90;;;;;;8218982;28;20077;-80
2023/08/05 10:48:50;;;;;;;8.57;5.28;;;18.10;99.90;;;;;;8220725;28;20026;-81
2023/08/05 10:52:51;;;;;;;6.32;5.60;;;18.30;99.90;;;;;;8283840;28;20037;-79
2023/08/05 10:56:52;;;;;;;7.78;6.45;;;18.90;99.90;;;;;;8285025;28;20394;-81
2023/08/05 11:01:00;;;;;;;6.15;4.85;;;19.20;99.90;;;;;;8282146;28;20030;-80
2023/08/05 11:05:08;;;;;;;6.70;5.22;;;19.60;99.90;;;;;;8218673;28;20031;-80
2023/08/05 11:09:09;;;;;;;5.53;4.90;;;20.30;99.90;;;;;;8329807;28;20019;-80
2023/08/05 11:13:10;;;;;;;7.47;5.18;;;20.70;99.90;;;;;;8283709;28;20083;-80
2023/08/05 11:17:12;;;;;;;9.40;6.07;;;20.90;99.90;;;;;;8279809;28;20057;-81
2023/08/05 11:21:14;;;;;;;9.10;5.82;;;21.50;99.90;;;;;;8224412;28;20066;-80
2023/08/05 11:25:18;;;;;;;7.85;6.05;;;21.40;99.90;;;;;;8287212;28;20066;-81
2023/08/05 11:29:19;;;;;;;8.15;5.65;;;21.40;99.90;;;;;;8294417;28;20411;-81
2023/08/05 11:33:21;;;;;;;7.93;4.90;;;21.60;99.90;;;;;;8290838;28;20039;-80
2023/08/05 11:37:24;;;;;;;5.88;5.22;;;22.10;99.90;;;;;;8297688;28;20023;-81
2023/08/05 11:41:26;;;;;;;6.65;4.50;;;22.40;99.90;;;;;;8297692;28;20019;-81
2023/08/05 11:45:26;;;;;;;6.72;5.07;;;22.50;99.90;;;;;;8295843;28;20122;-82
2023/08/05 11:49:27;;;;;;;6.72;5.03;;;22.40;99.90;;;;;;8312948;28;20019;-82
2023/08/05 11:53:28;;;;;;;6.15;5.07;;;22.40;99.90;;;;;;8296547;28;20080;-80
2023/08/05 11:57:29;;;;;;;4.70;4.20;;;22.10;99.90;;;;;;8219059;28;20047;-81
2023/08/05 12:01:34;;;;;;;5.00;4.35;;;22.20;99.90;;;;;;8290483;28;20399;-81
2023/08/05 12:05:35;;;;;;;7.65;5.38;;;22.00;99.90;;;;;;8284546;28;20063;-81
2023/08/05 12:09:35;;;;;;;6.63;4.97;;;21.60;99.90;;;;;;8281608;28;20031;-80
2023/08/05 12:13:36;;;;;;;8.20;5.10;;;21.40;99.90;;;;;;8284449;28;20027;-80
2023/08/05 12:17:38;;;;;;;6.00;4.82;;;21.60;99.90;;;;;;8291638;28;20039;-82
2023/08/05 12:21:38;;;;;;;6.00;4.82;;;21.50;99.90;;;;;;8294761;28;20026;-82
2023/08/05 12:25:39;;;;;;;5.22;4.57;;;21.50;99.90;;;;;;8289575;28;20494;-83
2023/08/05 12:29:40;;;;;;;6.47;5.10;;;21.50;99.90;;;;;;8291830;28;20050;-82
2023/08/05 12:33:40;;;;;;;7.32;4.35;;;21.60;99.90;;;;;;8287340;28;20042;-81
2023/08/05 12:37:41;;;;;;;6.78;4.50;;;21.70;99.90;;;;;;8287457;28;20414;-82
2023/08/05 12:41:42;;;;;;;4.28;3.85;;;21.70;99.90;;;;;;8308084;28;20027;-82
2023/08/05 12:45:43;;;;;;;5.38;4.40;;;22.10;99.90;;;;;;8274360;28;20061;-81
2023/08/05 12:49:43;;;;;;;4.68;3.97;;;22.10;99.90;;;;;;8281523;28;20035;-82
2023/08/05 12:53:44;;;;;;;5.85;4.47;;;22.60;99.90;;;;;;8289753;28;20027;-81
2023/08/05 12:57:45;;;;;;;4.80;4.00;;;22.90;99.90;;;;;;8291770;28;20035;-81
2023/08/05 13:01:45;;;;;;;6.70;3.90;;;23.00;99.90;;;;;;8279279;28;20074;-81
2023/08/05 13:05:46;;;;;;;4.18;3.65;;;23.40;99.90;;;;;;8287868;28;20048;-82
2023/08/05 13:09:46;;;;;;;4.40;3.97;;;23.30;99.90;;;;;;8286352;28;20055;-81
2023/08/05 13:13:47;;;;;;;3.80;3.08;;;23.30;99.90;;;;;;8304906;28;20038;-81
2023/08/05 13:17:47;;;;;;;5.47;3.70;;;22.90;99.90;;;;;;8295629;28;20028;-82
2023/08/05 13:21:48;;;;;;;6.28;4.22;;;22.60;99.90;;;;;;8282773;28;20015;-82
2023/08/05 13:25:48;;;;;;;6.70;4.30;;;22.50;99.90;;;;;;8213046;28;20054;-82
2023/08/05 13:29:49;;;;;;;4.32;3.92;;;22.40;99.90;;;;;;8266685;28;20050;-82
2023/08/05 13:33:50;;;;;;;5.72;4.20;;;22.30;99.90;;;;;;8221944;28;20031;-82
2023/08/05 13:37:51;;;;;;;4.57;3.70;;;22.10;99.90;;;;;;8311991;28;20020;-82
2023/08/05 13:41:58;;;;;;;8.05;4.22;;;22.10;99.90;;;;;;8222141;28;20030;-82
2023/08/05 13:46:00;;;;;;;4.13;3.70;;;22.10;99.90;;;;;;8286189;28;20497;-82
2023/08/05 13:50:01;;;;;;;4.95;3.50;;;21.70;99.90;;;;;;8283796;28;20031;-81
2023/08/05 13:54:01;;;;;;;3.78;3.40;;;21.70;99.90;;;;;;8265974;28;20539;-81
2023/08/05 13:58:02;;;;;;;6.75;4.05;;;21.30;99.90;;;;;;8305620;28;20114;-82
2023/08/05 14:02:03;;;;;;;5.72;4.53;;;20.90;99.90;;;;;;8284648;28;20037;-82
2023/08/05 14:06:03;;;;;;;6.22;4.53;;;20.70;99.90;;;;;;8282815;28;20027;-81
2023/08/05 14:10:04;;;;;;;6.35;4.47;;;20.80;99.90;;;;;;8287412;28;20058;-82
2023/08/05 14:14:05;;;;;;;7.40;4.60;;;20.70;99.90;;;;;;8288346;28;20043;-82
2023/08/05 14:18:05;;;;;;;5.40;4.03;;;20.60;99.90;;;;;;8275366;28;20039;-82
2023/08/05 14:22:06;;;;;;;7.22;6.00;;;20.60;99.90;;;;;;8222740;28;20110;-82
2023/08/05 14:26:06;;;;;;;6.47;5.68;;;20.80;99.90;;;;;;8208972;28;20027;-82
2023/08/05 14:30:07;;;;;;;29.67;21.08;;;20.70;99.90;;;;;;8285765;28;20035;-82
2023/08/05 14:34:07;;;;;;;8.90;8.00;;;20.60;99.90;;;;;;8218157;28;20108;-82
2023/08/05 14:38:08;;;;;;;7.13;5.63;;;20.40;99.90;;;;;;8286815;28;20041;-80
2023/08/05 14:42:09;;;;;;;6.30;5.70;;;20.40;99.90;;;;;;8308132;28;20030;-82
2023/08/05 14:46:09;;;;;;;8.32;5.20;;;20.20;99.90;;;;;;8310995;28;20517;-84
2023/08/05 14:50:10;;;;;;;6.43;4.72;;;20.00;99.90;;;;;;8222378;28;20043;-81
2023/08/05 14:54:10;;;;;;;5.93;4.55;;;20.10;99.90;;;;;;8229375;28;20038;-85
2023/08/05 14:58:11;;;;;;;5.93;4.43;;;20.30;99.90;;;;;;8289025;28;20039;-81
2023/08/05 15:02:11;;;;;;;5.95;4.72;;;20.10;99.90;;;;;;8206301;28;20019;-81
2023/08/05 15:06:13;;;;;;;5.68;4.13;;;20.20;99.90;;;;;;8223563;28;20415;-82
2023/08/05 15:10:13;;;;;;;7.15;5.13;;;20.40;99.90;;;;;;8301065;28;20038;-81
2023/08/05 15:14:15;;;;;;;8.35;5.30;;;20.40;99.90;;;;;;8282728;28;20046;-80
2023/08/05 15:18:15;;;;;;;6.35;5.00;;;20.30;99.90;;;;;;8272672;28;20032;-81
2023/08/05 15:22:16;;;;;;;5.72;4.90;;;20.20;99.90;;;;;;8298196;28;20034;-81
2023/08/05 15:26:17;;;;;;;6.82;5.15;;;20.10;99.90;;;;;;8284339;28;20785;-82
2023/08/05 15:30:17;;;;;;;6.60;5.40;;;20.00;99.90;;;;;;8285865;28;20403;-82
2023/08/05 15:34:18;;;;;;;5.55;4.55;;;19.90;99.90;;;;;;8280348;28;20617;-82
2023/08/05 15:38:18;;;;;;;5.30;4.30;;;19.90;99.90;;;;;;8292153;28;20384;-82
2023/08/05 15:42:19;;;;;;;4.80;3.67;;;19.80;99.90;;;;;;8298328;28;20035;-82
2023/08/05 15:46:19;;;;;;;6.25;4.25;;;19.60;99.90;;;;;;8220222;28;20047;-82
2023/08/05 15:50:20;;;;;;;6.15;4.03;;;19.20;99.90;;;;;;8287912;28;20034;-81
2023/08/05 15:54:21;;;;;;;6.28;4.70;;;19.10;99.90;;;;;;8283892;28;20085;-82
2023/08/05 15:58:21;;;;;;;5.72;4.60;;;19.00;99.90;;;;;;8290952;28;20096;-83
2023/08/05 16:02:22;;;;;;;6.43;4.45;;;19.10;99.90;;;;;;8327150;28;20018;-82
2023/08/05 16:06:22;;;;;;;5.80;4.10;;;19.00;99.90;;;;;;8298019;28;20037;-82
2023/08/05 16:10:23;;;;;;;7.95;5.28;;;19.00;99.90;;;;;;8298366;28;20031;-83
2023/08/05 16:14:23;;;;;;;6.15;5.05;;;18.80;99.90;;;;;;8278060;28;20390;-82
2023/08/05 16:18:24;;;;;;;6.18;4.68;;;19.00;99.90;;;;;;8282825;28;20027;-82
2023/08/05 16:22:24;;;;;;;8.13;5.32;;;19.10;99.90;;;;;;8221021;28;20042;-82
2023/08/05 16:26:25;;;;;;;7.30;5.50;;;19.10;99.90;;;;;;8227860;28;20027;-83
2023/08/05 16:30:26;;;;;;;7.25;6.15;;;19.10;99.90;;;;;;8234520;28;20034;-82
2023/08/05 16:34:27;;;;;;;7.43;5.63;;;19.20;99.90;;;;;;8298483;28;20019;-82
2023/08/05 16:38:32;;;;;;;8.90;6.22;;;19.20;99.90;;;;;;8288523;28;20039;-83
2023/08/05 16:42:32;;;;;;;8.32;6.05;;;19.20;99.90;;;;;;8285790;28;20023;-81
2023/08/05 16:46:36;;;;;;;8.68;6.78;;;19.40;99.90;;;;;;8293167;28;20094;-82
2023/08/05 16:50:37;;;;;;;11.73;7.00;;;19.30;99.90;;;;;;8284838;28;20033;-82
2023/08/05 16:54:38;;;;;;;9.00;6.65;;;19.30;99.90;;;;;;8296579;28;20031;-82
2023/08/05 16:58:38;;;;;;;9.27;6.53;;;19.20;99.90;;;;;;8298910;28;20512;-82
2023/08/05 17:02:39;;;;;;;7.65;6.78;;;19.20;99.90;;;;;;8225459;28;20034;-81
2023/08/05 17:06:39;;;;;;;9.85;6.18;;;19.10;99.90;;;;;;8289153;28;20027;-81
2023/08/05 17:10:40;;;;;;;6.65;5.53;;;19.20;99.90;;;;;;8279984;28;20023;-81
2023/08/05 17:14:41;;;;;;;6.70;5.15;;;19.40;99.90;;;;;;8261622;28;20034;-82
2023/08/05 17:18:41;;;;;;;6.82;5.22;;;19.40;99.90;;;;;;8243501;28;20514;-80
2023/08/05 17:22:42;;;;;;;7.75;5.28;;;19.20;99.90;;;;;;8212601;28;20066;-82
2023/08/05 17:26:42;;;;;;;8.77;5.45;;;19.10;99.90;;;;;;8283487;28;20037;-83
2023/08/05 17:30:43;;;;;;;7.93;5.82;;;18.90;99.90;;;;;;8203121;28;20077;-82
2023/08/05 17:34:44;;;;;;;7.30;5.32;;;18.80;99.90;;;;;;8280964;28;20026;-83
2023/08/05 17:38:44;;;;;;;8.68;6.03;;;18.90;99.90;;;;;;8226892;28;20022;-82
2023/08/05 17:42:45;;;;;;;7.40;5.57;;;18.90;99.90;;;;;;8285882;28;20505;-82
2023/08/05 17:46:46;;;;;;;8.25;6.00;;;19.00;99.90;;;;;;8283700;28;20035;-82
2023/08/05 17:50:46;;;;;;;7.07;5.75;;;18.80;99.90;;;;;;8278082;28;20042;-83
2023/08/05 17:54:47;;;;;;;6.30;5.70;;;18.70;99.90;;;;;;8284977;28;20148;-82
2023/08/05 17:58:51;;;;;;;6.25;5.65;;;18.90;99.90;;;;;;8215858;28;20016;-82
2023/08/05 18:02:51;;;;;;;9.70;6.03;;;18.80;99.90;;;;;;8250481;28;20031;-81
2023/08/05 18:06:52;;;;;;;7.43;6.20;;;18.60;99.90;;;;;;8270891;28;20042;-82
2023/08/05 18:10:52;;;;;;;9.32;6.10;;;18.60;99.90;;;;;;8291581;28;20030;-82
2023/08/05 18:14:53;;;;;;;7.80;6.20;;;18.40;99.90;;;;;;8223077;28;20127;-81
2023/08/05 18:18:53;;;;;;;9.45;6.75;;;18.30;99.90;;;;;;8287107;28;20035;-81
2023/08/05 18:22:54;;;;;;;9.88;6.85;;;18.00;99.90;;;;;;8218414;28;20036;-81
2023/08/05 18:26:54;;;;;;;13.52;7.25;;;17.90;99.90;;;;;;8290230;28;20031;-81
2023/08/05 18:30:55;;;;;;;11.23;7.07;;;17.60;99.90;;;;;;8284850;28;20019;-81
2023/08/05 18:34:56;;;;;;;8.30;7.28;;;17.40;99.90;;;;;;8284601;28;20050;-82
2023/08/05 18:38:56;;;;;;;9.77;7.75;;;17.10;99.90;;;;;;8215164;28;20030;-82
2023/08/05 18:42:57;;;;;;;12.13;8.50;;;17.30;99.90;;;;;;8291272;28;20042;-82
2023/08/05 18:46:57;;;;;;;10.23;7.97;;;17.10;99.90;;;;;;8293026;28;20023;-82
2023/08/05 18:50:59;;;;;;;11.32;8.55;;;16.70;99.90;;;;;;8289226;28;20034;-82
2023/08/05 18:54:59;;;;;;;10.50;8.55;;;16.50;99.90;;;;;;8226074;28;20505;-82
2023/08/05 18:59:00;;;;;;;12.18;9.00;;;16.40;99.90;;;;;;8211102;28;20035;-81
2023/08/05 19:03:00;;;;;;;13.00;8.75;;;16.20;99.90;;;;;;8276751;28;20394;-82
2023/08/05 19:07:03;;;;;;;11.23;9.20;;;16.20;99.90;;;;;;8238864;28;20045;-81
2023/08/05 19:11:13;;;;;;;13.18;9.38;;;16.30;99.90;;;;;;8254622;28;20499;-81
2023/08/05 19:15:13;;;;;;;12.13;8.95;;;16.20;99.90;;;;;;8277033;28;20042;-82
2023/08/05 19:19:14;;;;;;;11.27;8.82;;;16.30;99.90;;;;;;8302167;28;20059;-82
2023/08/05 19:23:14;;;;;;;13.30;8.93;;;16.20;99.90;;;;;;8288415;28;20023;-81
2023/08/05 19:27:17;;;;;;;13.13;9.13;;;16.20;99.90;;;;;;8283411;28;20038;-82
2023/08/05 19:31:18;;;;;;;12.05;7.95;;;16.00;99.90;;;;;;8223322;28;20027;-80
2023/08/05 19:35:18;;;;;;;10.60;7.78;;;16.20;99.90;;;;;;8292677;28;20037;-82
2023/08/05 19:39:19;;;;;;;9.15;7.18;;;16.20;99.90;;;;;;8288992;28;20055;-81
2023/08/05 19:43:19;;;;;;;11.48;7.43;;;16.10;99.90;;;;;;8292281;28;20026;-82
2023/08/05 19:47:20;;;;;;;12.38;7.60;;;16.10;99.90;;;;;;8281425;28;20031;-80
2023/08/05 19:51:20;;;;;;;11.23;7.70;;;16.00;99.90;;;;;;8219294;28;20048;-82
2023/08/05 19:55:23;;;;;;;9.50;7.70;;;15.90;99.90;;;;;;8215525;28;20077;-80
2023/08/05 19:59:23;;;;;;;9.70;7.05;;;15.90;99.90;;;;;;8281587;28;20775;-82
2023/08/05 20:03:24;;;;;;;10.48;7.03;;;15.90;99.90;;;;;;8223573;28;20035;-81
2023/08/05 20:07:25;;;;;;;6.80;5.72;;;15.90;99.90;;;;;;8221591;28;20053;-82
2023/08/05 20:11:25;;;;;;;8.75;6.10;;;16.00;99.90;;;;;;8292439;28;20041;-81
2023/08/05 20:15:26;;;;;;;6.53;4.82;;;15.90;99.90;;;;;;8267779;22;20074;-82
2023/08/05 20:19:26;;;;;;;8.82;5.80;;;16.10;99.90;;;;;;8276475;28;20018;-83
2023/08/05 20:23:27;;;;;;;8.20;5.28;;;16.00;99.90;;;;;;8284378;28;20038;-83
2023/08/05 20:27:28;;;;;;;6.35;5.32;;;15.80;99.90;;;;;;8341689;28;20559;-83
2023/08/05 20:31:28;;;;;;;8.25;6.05;;;15.70;99.90;;;;;;8266987;28;20030;-83
2023/08/05 20:35:32;;;;;;;9.25;5.72;;;15.70;99.90;;;;;;8282367;28;20054;-83
2023/08/05 20:39:32;;;;;;;9.35;6.18;;;15.60;99.90;;;;;;8325815;28;20042;-83
2023/08/05 20:43:33;;;;;;;9.68;6.15;;;15.50;99.90;;;;;;8337933;28;20037;-83
2023/08/05 20:47:33;;;;;;;9.60;5.57;;;15.50;99.90;;;;;;8316379;28;20029;-84